sensor_id;sensor_type;location;lat;lon;timestamp;P1;durP1;ratioP1;P2;durP2;ratioP2
55037;SDS011;40937;53.594;10.034;2023-03-07T00:00:21;19.60;;;17.98;;
55037;SDS011;40937;53.594;10.034;2023-03-07T00:02:49;20.70;;;18.58;;
55037;SDS011;40937;53.594;10.034;2023-03-07T00:05:18;21.38;;;19.25;;
55037;SDS011;40937;53.594;10.034;2023-03-07T00:07:45;21.92;;;19.95;;
55037;SDS011;40937;53.594;10.034;2023-03-07T00:10:12;21.20;;;19.10;;
55037;SDS011;40937;53.594;10.034;2023-03-07T00:12:40;22.50;;;20.25;;
55037;SDS011;40937;53.594;10.034;2023-03-07T00:15:07;23.50;;;21.40;;
55037;SDS011;40937;53.594;10.034;2023-03-07T00:17:36;25.95;;;23.40;;
55037;SDS011;40937;53.594;10.034;2023-03-07T00:20:04;24.75;;;22.35;;
55037;SDS011;40937;53.594;10.034;2023-03-07T00:22:34;23.20;;;20.98;;
55037;SDS011;40937;53.594;10.034;2023-03-07T00:25:01;24.08;;;21.73;;
55037;SDS011;40937;53.594;10.034;2023-03-07T00:27:30;25.92;;;23.38;;
55037;SDS011;40937;53.594;10.034;2023-03-07T00:29:58;26.13;;;23.33;;
55037;SDS011;40937;53.594;10.034;2023-03-07T00:32:26;26.02;;;23.23;;
55037;SDS011;40937;53.594;10.034;2023-03-07T00:34:54;25.00;;;22.50;;
55037;SDS011;40937;53.594;10.034;2023-03-07T00:37:21;26.30;;;23.70;;
55037;SDS011;40937;53.594;10.034;2023-03-07T00:39:50;27.13;;;24.50;;
55037;SDS011;40937;53.594;10.034;2023-03-07T00:42:17;26.55;;;23.75;;
55037;SDS011;40937;53.594;10.034;2023-03-07T00:44:44;26.30;;;23.77;;
55037;SDS011;40937;53.594;10.034;2023-03-07T00:47:11;27.60;;;24.88;;
55037;SDS011;40937;53.594;10.034;2023-03-07T00:49:39;29.23;;;26.52;;
55037;SDS011;40937;53.594;10.034;2023-03-07T00:52:06;28.35;;;25.33;;
55037;SDS011;40937;53.594;10.034;2023-03-07T00:54:33;30.55;;;27.60;;
55037;SDS011;40937;53.594;10.034;2023-03-07T00:57:02;30.77;;;27.85;;
55037;SDS011;40937;53.594;10.034;2023-03-07T00:59:29;32.53;;;29.27;;
55037;SDS011;40937;53.594;10.034;2023-03-07T01:01:57;31.73;;;28.60;;
55037;SDS011;40937;53.594;10.034;2023-03-07T01:04:24;31.15;;;27.90;;
55037;SDS011;40937;53.594;10.034;2023-03-07T01:06:51;33.22;;;29.95;;
55037;SDS011;40937;53.594;10.034;2023-03-07T01:09:18;32.47;;;29.10;;
55037;SDS011;40937;53.594;10.034;2023-03-07T01:11:46;30.67;;;27.60;;
55037;SDS011;40937;53.594;10.034;2023-03-07T01:14:17;33.15;;;29.60;;
55037;SDS011;40937;53.594;10.034;2023-03-07T01:16:44;32.95;;;29.77;;
55037;SDS011;40937;53.594;10.034;2023-03-07T01:19:11;34.65;;;30.95;;
55037;SDS011;40937;53.594;10.034;2023-03-07T01:21:40;32.90;;;29.75;;
55037;SDS011;40937;53.594;10.034;2023-03-07T01:24:09;33.13;;;29.80;;
55037;SDS011;40937;53.594;10.034;2023-03-07T01:26:39;33.38;;;30.00;;
55037;SDS011;40937;53.594;10.034;2023-03-07T01:29:07;36.40;;;32.72;;
55037;SDS011;40937;53.594;10.034;2023-03-07T01:31:37;34.30;;;31.00;;
55037;SDS011;40937;53.594;10.034;2023-03-07T01:34:05;34.47;;;31.17;;
55037;SDS011;40937;53.594;10.034;2023-03-07T01:36:35;33.60;;;30.15;;
55037;SDS011;40937;53.594;10.034;2023-03-07T01:39:05;34.65;;;31.27;;
55037;SDS011;40937;53.594;10.034;2023-03-07T01:41:37;32.63;;;29.23;;
55037;SDS011;40937;53.594;10.034;2023-03-07T01:44:14;31.88;;;28.67;;
55037;SDS011;40937;53.594;10.034;2023-03-07T01:50:38;30.98;;;27.98;;
55037;SDS011;40937;53.594;10.034;2023-03-07T01:53:05;30.10;;;27.25;;
55037;SDS011;40937;53.594;10.034;2023-03-07T01:55:39;30.05;;;27.27;;
55037;SDS011;40937;53.594;10.034;2023-03-07T01:58:12;30.27;;;27.38;;
55037;SDS011;40937;53.594;10.034;2023-03-07T02:00:41;28.73;;;25.83;;
55037;SDS011;40937;53.594;10.034;2023-03-07T02:03:28;29.38;;;26.55;;
55037;SDS011;40937;53.594;10.034;2023-03-07T02:06:17;28.73;;;25.95;;
55037;SDS011;40937;53.594;10.034;2023-03-07T02:08:48;28.70;;;25.90;;
55037;SDS011;40937;53.594;10.034;2023-03-07T02:11:20;29.20;;;26.38;;
55037;SDS011;40937;53.594;10.034;2023-03-07T02:14:05;28.35;;;25.80;;
55037;SDS011;40937;53.594;10.034;2023-03-07T02:16:35;27.42;;;24.92;;
55037;SDS011;40937;53.594;10.034;2023-03-07T02:19:16;28.02;;;25.42;;
55037;SDS011;40937;53.594;10.034;2023-03-07T02:22:06;28.33;;;25.63;;
55037;SDS011;40937;53.594;10.034;2023-03-07T02:24:41;28.20;;;25.50;;
55037;SDS011;40937;53.594;10.034;2023-03-07T02:27:23;29.73;;;27.15;;
55037;SDS011;40937;53.594;10.034;2023-03-07T02:29:59;28.45;;;25.80;;
55037;SDS011;40937;53.594;10.034;2023-03-07T02:32:34;27.98;;;25.17;;
55037;SDS011;40937;53.594;10.034;2023-03-07T02:35:09;28.23;;;25.67;;
55037;SDS011;40937;53.594;10.034;2023-03-07T02:38:19;27.67;;;24.98;;
55037;SDS011;40937;53.594;10.034;2023-03-07T02:41:00;28.23;;;25.35;;
55037;SDS011;40937;53.594;10.034;2023-03-07T02:43:48;30.33;;;27.40;;
55037;SDS011;40937;53.594;10.034;2023-03-07T02:46:28;28.25;;;25.58;;
55037;SDS011;40937;53.594;10.034;2023-03-07T02:48:56;29.40;;;26.70;;
55037;SDS011;40937;53.594;10.034;2023-03-07T02:51:26;28.75;;;26.13;;
55037;SDS011;40937;53.594;10.034;2023-03-07T02:53:55;30.52;;;27.63;;
55037;SDS011;40937;53.594;10.034;2023-03-07T02:56:28;32.03;;;29.10;;
55037;SDS011;40937;53.594;10.034;2023-03-07T02:59:12;31.70;;;28.60;;
55037;SDS011;40937;53.594;10.034;2023-03-07T03:01:57;32.30;;;29.30;;
55037;SDS011;40937;53.594;10.034;2023-03-07T03:04:50;30.23;;;27.23;;
55037;SDS011;40937;53.594;10.034;2023-03-07T03:10:10;33.28;;;30.13;;
55037;SDS011;40937;53.594;10.034;2023-03-07T03:13:03;32.10;;;29.10;;
55037;SDS011;40937;53.594;10.034;2023-03-07T03:15:37;31.88;;;28.80;;
55037;SDS011;40937;53.594;10.034;2023-03-07T03:18:10;32.30;;;29.02;;
55037;SDS011;40937;53.594;10.034;2023-03-07T03:20:48;30.38;;;27.48;;
55037;SDS011;40937;53.594;10.034;2023-03-07T03:23:29;29.88;;;26.98;;
55037;SDS011;40937;53.594;10.034;2023-03-07T03:26:25;29.27;;;26.52;;
55037;SDS011;40937;53.594;10.034;2023-03-07T03:29:17;26.02;;;23.55;;
55037;SDS011;40937;53.594;10.034;2023-03-07T03:32:20;24.40;;;22.17;;
55037;SDS011;40937;53.594;10.034;2023-03-07T03:38:19;25.10;;;22.58;;
55037;SDS011;40937;53.594;10.034;2023-03-07T03:41:16;25.00;;;22.70;;
55037;SDS011;40937;53.594;10.034;2023-03-07T03:44:16;23.65;;;21.33;;
55037;SDS011;40937;53.594;10.034;2023-03-07T03:46:59;23.38;;;21.02;;
55037;SDS011;40937;53.594;10.034;2023-03-07T03:49:32;23.35;;;21.15;;
55037;SDS011;40937;53.594;10.034;2023-03-07T03:52:05;23.25;;;20.85;;
55037;SDS011;40937;53.594;10.034;2023-03-07T03:54:33;23.15;;;20.83;;
55037;SDS011;40937;53.594;10.034;2023-03-07T03:57:14;24.73;;;22.30;;
55037;SDS011;40937;53.594;10.034;2023-03-07T03:59:48;23.52;;;21.42;;
55037;SDS011;40937;53.594;10.034;2023-03-07T04:03:08;23.95;;;21.40;;
55037;SDS011;40937;53.594;10.034;2023-03-07T04:05:43;22.65;;;19.85;;
55037;SDS011;40937;53.594;10.034;2023-03-07T04:08:22;24.13;;;20.55;;
55037;SDS011;40937;53.594;10.034;2023-03-07T04:11:17;22.67;;;20.58;;
55037;SDS011;40937;53.594;10.034;2023-03-07T04:14:15;23.00;;;19.25;;
55037;SDS011;40937;53.594;10.034;2023-03-07T04:19:59;22.10;;;20.02;;
55037;SDS011;40937;53.594;10.034;2023-03-07T04:22:34;20.73;;;18.75;;
55037;SDS011;40937;53.594;10.034;2023-03-07T04:25:29;20.50;;;18.60;;
55037;SDS011;40937;53.594;10.034;2023-03-07T04:28:29;19.90;;;17.80;;
55037;SDS011;40937;53.594;10.034;2023-03-07T04:34:48;18.30;;;14.98;;
55037;SDS011;40937;53.594;10.034;2023-03-07T04:37:29;18.75;;;15.30;;
55037;SDS011;40937;53.594;10.034;2023-03-07T04:40:20;16.10;;;13.65;;
55037;SDS011;40937;53.594;10.034;2023-03-07T04:42:49;17.02;;;13.30;;
55037;SDS011;40937;53.594;10.034;2023-03-07T04:45:21;18.25;;;13.18;;
55037;SDS011;40937;53.594;10.034;2023-03-07T04:48:10;13.60;;;12.25;;
55037;SDS011;40937;53.594;10.034;2023-03-07T04:50:53;16.25;;;9.60;;
55037;SDS011;40937;53.594;10.034;2023-03-07T04:53:29;12.32;;;9.32;;
55037;SDS011;40937;53.594;10.034;2023-03-07T04:59:52;10.23;;;7.15;;
55037;SDS011;40937;53.594;10.034;2023-03-07T05:02:52;12.32;;;8.13;;
55037;SDS011;40937;53.594;10.034;2023-03-07T05:05:38;8.38;;;6.90;;
55037;SDS011;40937;53.594;10.034;2023-03-07T05:08:33;9.98;;;6.55;;
55037;SDS011;40937;53.594;10.034;2023-03-07T05:11:24;7.65;;;5.25;;
55037;SDS011;40937;53.594;10.034;2023-03-07T05:16:54;12.98;;;5.55;;
55037;SDS011;40937;53.594;10.034;2023-03-07T05:19:33;8.48;;;4.50;;
55037;SDS011;40937;53.594;10.034;2023-03-07T05:22:00;7.88;;;3.60;;
55037;SDS011;40937;53.594;10.034;2023-03-07T05:24:56;5.57;;;3.20;;
55037;SDS011;40937;53.594;10.034;2023-03-07T05:27:41;8.82;;;3.45;;
55037;SDS011;40937;53.594;10.034;2023-03-07T05:31:08;15.43;;;3.92;;
55037;SDS011;40937;53.594;10.034;2023-03-07T05:33:51;7.50;;;3.75;;
55037;SDS011;40937;53.594;10.034;2023-03-07T05:39:33;9.55;;;3.30;;
55037;SDS011;40937;53.594;10.034;2023-03-07T05:42:28;8.45;;;3.42;;
55037;SDS011;40937;53.594;10.034;2023-03-07T05:45:07;8.82;;;2.88;;
55037;SDS011;40937;53.594;10.034;2023-03-07T05:53:37;8.70;;;3.05;;
55037;SDS011;40937;53.594;10.034;2023-03-07T05:56:14;9.93;;;2.72;;
55037;SDS011;40937;53.594;10.034;2023-03-07T05:58:42;6.57;;;2.17;;
55037;SDS011;40937;53.594;10.034;2023-03-07T06:01:40;6.22;;;2.50;;
55037;SDS011;40937;53.594;10.034;2023-03-07T06:04:26;8.13;;;2.28;;
55037;SDS011;40937;53.594;10.034;2023-03-07T06:06:53;8.18;;;2.05;;
55037;SDS011;40937;53.594;10.034;2023-03-07T06:14:47;4.43;;;1.45;;
55037;SDS011;40937;53.594;10.034;2023-03-07T06:17:24;8.10;;;1.85;;
55037;SDS011;40937;53.594;10.034;2023-03-07T06:19:59;12.40;;;2.42;;
55037;SDS011;40937;53.594;10.034;2023-03-07T06:22:37;7.35;;;2.15;;
55037;SDS011;40937;53.594;10.034;2023-03-07T06:25:26;8.38;;;1.77;;
55037;SDS011;40937;53.594;10.034;2023-03-07T06:28:14;8.90;;;3.35;;
55037;SDS011;40937;53.594;10.034;2023-03-07T06:30:48;10.70;;;2.00;;
55037;SDS011;40937;53.594;10.034;2023-03-07T06:36:29;8.40;;;2.45;;
55037;SDS011;40937;53.594;10.034;2023-03-07T06:39:03;12.07;;;2.15;;
55037;SDS011;40937;53.594;10.034;2023-03-07T06:41:47;8.77;;;2.03;;
55037;SDS011;40937;53.594;10.034;2023-03-07T06:51:35;10.95;;;2.10;;
55037;SDS011;40937;53.594;10.034;2023-03-07T06:54:59;10.07;;;2.33;;
55037;SDS011;40937;53.594;10.034;2023-03-07T06:57:47;7.95;;;2.05;;
55037;SDS011;40937;53.594;10.034;2023-03-07T07:01:40;7.43;;;2.45;;
55037;SDS011;40937;53.594;10.034;2023-03-07T10:44:55;6.22;;;1.70;;
55037;SDS011;40937;53.594;10.034;2023-03-07T10:48:51;5.18;;;1.58;;
55037;SDS011;40937;53.594;10.034;2023-03-07T11:04:42;7.82;;;1.90;;
55037;SDS011;40937;53.594;10.034;2023-03-07T11:15:16;8.48;;;2.28;;
55037;SDS011;40937;53.594;10.034;2023-03-07T11:39:18;13.02;;;2.13;;
55037;SDS011;40937;53.594;10.034;2023-03-07T11:41:55;11.52;;;2.38;;
55037;SDS011;40937;53.594;10.034;2023-03-07T11:44:30;11.65;;;2.65;;
55037;SDS011;40937;53.594;10.034;2023-03-07T11:47:16;9.02;;;2.40;;
55037;SDS011;40937;53.594;10.034;2023-03-07T11:50:00;6.63;;;1.58;;
55037;SDS011;40937;53.594;10.034;2023-03-07T11:52:37;7.72;;;2.08;;
55037;SDS011;40937;53.594;10.034;2023-03-07T11:55:28;13.10;;;2.08;;
55037;SDS011;40937;53.594;10.034;2023-03-07T11:58:06;16.33;;;2.33;;
55037;SDS011;40937;53.594;10.034;2023-03-07T12:00:47;9.30;;;2.35;;
55037;SDS011;40937;53.594;10.034;2023-03-07T12:03:45;9.00;;;2.00;;
55037;SDS011;40937;53.594;10.034;2023-03-07T12:06:26;8.52;;;1.85;;
55037;SDS011;40937;53.594;10.034;2023-03-07T12:09:10;8.45;;;2.38;;
55037;SDS011;40937;53.594;10.034;2023-03-07T12:11:51;7.22;;;1.45;;
55037;SDS011;40937;53.594;10.034;2023-03-07T12:14:38;8.85;;;1.50;;
55037;SDS011;40937;53.594;10.034;2023-03-07T12:17:15;4.28;;;1.50;;
55037;SDS011;40937;53.594;10.034;2023-03-07T12:20:00;7.72;;;2.08;;
55037;SDS011;40937;53.594;10.034;2023-03-07T12:22:50;7.00;;;1.67;;
55037;SDS011;40937;53.594;10.034;2023-03-07T12:25:29;10.20;;;2.13;;
55037;SDS011;40937;53.594;10.034;2023-03-07T12:28:08;8.30;;;1.70;;
55037;SDS011;40937;53.594;10.034;2023-03-07T12:30:44;7.68;;;2.00;;
55037;SDS011;40937;53.594;10.034;2023-03-07T12:33:20;6.00;;;1.60;;
55037;SDS011;40937;53.594;10.034;2023-03-07T12:35:52;6.80;;;2.25;;
55037;SDS011;40937;53.594;10.034;2023-03-07T12:38:24;6.78;;;1.92;;
55037;SDS011;40937;53.594;10.034;2023-03-07T12:41:02;4.75;;;1.50;;
55037;SDS011;40937;53.594;10.034;2023-03-07T12:43:37;9.07;;;2.15;;
55037;SDS011;40937;53.594;10.034;2023-03-07T12:46:11;7.10;;;1.83;;
55037;SDS011;40937;53.594;10.034;2023-03-07T12:48:50;4.85;;;2.25;;
55037;SDS011;40937;53.594;10.034;2023-03-07T12:51:21;10.35;;;1.73;;
55037;SDS011;40937;53.594;10.034;2023-03-07T12:53:52;5.18;;;1.90;;
55037;SDS011;40937;53.594;10.034;2023-03-07T12:56:25;4.40;;;1.95;;
55037;SDS011;40937;53.594;10.034;2023-03-07T12:59:01;2.75;;;1.20;;
55037;SDS011;40937;53.594;10.034;2023-03-07T13:01:35;6.38;;;2.10;;
55037;SDS011;40937;53.594;10.034;2023-03-07T13:04:05;5.25;;;2.13;;
55037;SDS011;40937;53.594;10.034;2023-03-07T13:06:40;6.82;;;1.92;;
55037;SDS011;40937;53.594;10.034;2023-03-07T13:09:13;7.40;;;1.60;;
55037;SDS011;40937;53.594;10.034;2023-03-07T13:14:39;7.50;;;2.25;;
55037;SDS011;40937;53.594;10.034;2023-03-07T13:17:08;9.10;;;1.65;;
55037;SDS011;40937;53.594;10.034;2023-03-07T13:19:50;7.10;;;1.95;;
55037;SDS011;40937;53.594;10.034;2023-03-07T13:25:41;4.38;;;1.52;;
55037;SDS011;40937;53.594;10.034;2023-03-07T13:31:15;4.13;;;1.55;;
55037;SDS011;40937;53.594;10.034;2023-03-07T13:33:53;5.88;;;1.45;;
55037;SDS011;40937;53.594;10.034;2023-03-07T13:36:31;6.28;;;1.63;;
55037;SDS011;40937;53.594;10.034;2023-03-07T13:39:00;7.30;;;1.98;;
55037;SDS011;40937;53.594;10.034;2023-03-07T13:41:43;5.35;;;1.65;;
55037;SDS011;40937;53.594;10.034;2023-03-07T13:44:28;6.80;;;1.75;;
55037;SDS011;40937;53.594;10.034;2023-03-07T13:47:04;5.88;;;1.80;;
55037;SDS011;40937;53.594;10.034;2023-03-07T13:53:21;7.55;;;2.28;;
55037;SDS011;40937;53.594;10.034;2023-03-07T13:55:55;5.20;;;2.00;;
55037;SDS011;40937;53.594;10.034;2023-03-07T13:58:27;6.78;;;1.90;;
55037;SDS011;40937;53.594;10.034;2023-03-07T14:00:59;6.03;;;1.83;;
55037;SDS011;40937;53.594;10.034;2023-03-07T14:03:31;6.82;;;2.25;;
55037;SDS011;40937;53.594;10.034;2023-03-07T14:06:07;4.50;;;1.48;;
55037;SDS011;40937;53.594;10.034;2023-03-07T14:08:36;7.82;;;1.40;;
55037;SDS011;40937;53.594;10.034;2023-03-07T14:11:04;4.88;;;1.30;;
55037;SDS011;40937;53.594;10.034;2023-03-07T14:13:49;3.58;;;1.45;;
55037;SDS011;40937;53.594;10.034;2023-03-07T14:19:23;9.02;;;1.80;;
55037;SDS011;40937;53.594;10.034;2023-03-07T14:22:04;6.65;;;1.55;;
55037;SDS011;40937;53.594;10.034;2023-03-07T14:27:50;3.75;;;1.60;;
55037;SDS011;40937;53.594;10.034;2023-03-07T14:30:20;4.47;;;1.70;;
55037;SDS011;40937;53.594;10.034;2023-03-07T14:32:48;5.78;;;1.25;;
55037;SDS011;40937;53.594;10.034;2023-03-07T14:38:13;7.15;;;1.58;;
55037;SDS011;40937;53.594;10.034;2023-03-07T14:40:47;6.15;;;1.55;;
55037;SDS011;40937;53.594;10.034;2023-03-07T14:43:26;4.50;;;1.67;;
55037;SDS011;40937;53.594;10.034;2023-03-07T14:46:04;12.13;;;1.92;;
55037;SDS011;40937;53.594;10.034;2023-03-07T14:48:42;4.70;;;1.33;;
55037;SDS011;40937;53.594;10.034;2023-03-07T16:13:29;4.10;;;1.20;;
55037;SDS011;40937;53.594;10.034;2023-03-07T16:16:02;8.40;;;1.38;;
55037;SDS011;40937;53.594;10.034;2023-03-07T16:20:58;4.57;;;1.63;;
55037;SDS011;40937;53.594;10.034;2023-03-07T16:23:26;4.55;;;1.33;;
55037;SDS011;40937;53.594;10.034;2023-03-07T16:25:56;8.07;;;1.20;;
55037;SDS011;40937;53.594;10.034;2023-03-07T16:28:24;6.65;;;2.67;;
55037;SDS011;40937;53.594;10.034;2023-03-07T16:30:53;6.38;;;1.48;;
55037;SDS011;40937;53.594;10.034;2023-03-07T16:33:20;9.32;;;1.98;;
55037;SDS011;40937;53.594;10.034;2023-03-07T16:35:47;6.50;;;2.10;;
55037;SDS011;40937;53.594;10.034;2023-03-07T16:38:15;7.53;;;1.45;;
55037;SDS011;40937;53.594;10.034;2023-03-07T16:40:42;5.55;;;1.63;;
55037;SDS011;40937;53.594;10.034;2023-03-07T16:43:26;8.15;;;1.83;;
55037;SDS011;40937;53.594;10.034;2023-03-07T16:46:00;4.57;;;1.55;;
55037;SDS011;40937;53.594;10.034;2023-03-07T16:48:29;5.82;;;1.50;;
55037;SDS011;40937;53.594;10.034;2023-03-07T16:50:56;14.60;;;1.42;;
55037;SDS011;40937;53.594;10.034;2023-03-07T16:53:23;7.00;;;1.80;;
55037;SDS011;40937;53.594;10.034;2023-03-07T16:55:51;8.45;;;1.77;;
55037;SDS011;40937;53.594;10.034;2023-03-07T16:58:21;7.88;;;1.70;;
55037;SDS011;40937;53.594;10.034;2023-03-07T17:00:50;6.85;;;1.70;;
55037;SDS011;40937;53.594;10.034;2023-03-07T17:03:19;5.03;;;1.27;;
55037;SDS011;40937;53.594;10.034;2023-03-07T17:05:47;21.90;;;5.00;;
55037;SDS011;40937;53.594;10.034;2023-03-07T17:08:14;14.40;;;3.13;;
55037;SDS011;40937;53.594;10.034;2023-03-07T17:10:41;12.13;;;2.28;;
55037;SDS011;40937;53.594;10.034;2023-03-07T17:13:11;9.13;;;1.88;;
55037;SDS011;40937;53.594;10.034;2023-03-07T17:15:42;8.63;;;2.22;;
55037;SDS011;40937;53.594;10.034;2023-03-07T17:18:10;7.63;;;1.55;;
55037;SDS011;40937;53.594;10.034;2023-03-07T17:20:39;7.43;;;1.27;;
55037;SDS011;40937;53.594;10.034;2023-03-07T17:23:06;5.05;;;2.00;;
55037;SDS011;40937;53.594;10.034;2023-03-07T17:25:33;7.88;;;1.50;;
55037;SDS011;40937;53.594;10.034;2023-03-07T17:28:01;8.75;;;1.52;;
55037;SDS011;40937;53.594;10.034;2023-03-07T17:30:31;7.07;;;1.95;;
55037;SDS011;40937;53.594;10.034;2023-03-07T17:32:59;8.68;;;1.35;;
55037;SDS011;40937;53.594;10.034;2023-03-07T17:35:26;2.97;;;1.10;;
55037;SDS011;40937;53.594;10.034;2023-03-07T17:37:56;8.52;;;1.48;;
55037;SDS011;40937;53.594;10.034;2023-03-07T17:40:23;3.78;;;1.13;;
55037;SDS011;40937;53.594;10.034;2023-03-07T17:42:51;6.82;;;1.42;;
55037;SDS011;40937;53.594;10.034;2023-03-07T17:45:19;1.88;;;1.30;;
55037;SDS011;40937;53.594;10.034;2023-03-07T17:47:48;5.63;;;1.77;;
55037;SDS011;40937;53.594;10.034;2023-03-07T17:50:16;2.83;;;1.20;;
55037;SDS011;40937;53.594;10.034;2023-03-07T17:52:48;5.13;;;1.60;;
55037;SDS011;40937;53.594;10.034;2023-03-07T17:55:17;5.03;;;1.60;;
55037;SDS011;40937;53.594;10.034;2023-03-07T17:57:46;5.97;;;2.83;;
55037;SDS011;40937;53.594;10.034;2023-03-07T18:00:13;7.20;;;2.97;;
55037;SDS011;40937;53.594;10.034;2023-03-07T18:02:41;3.95;;;2.03;;
55037;SDS011;40937;53.594;10.034;2023-03-07T18:05:09;3.67;;;1.50;;
55037;SDS011;40937;53.594;10.034;2023-03-07T18:07:38;3.78;;;1.65;;
55037;SDS011;40937;53.594;10.034;2023-03-07T18:10:06;6.20;;;1.55;;
55037;SDS011;40937;53.594;10.034;2023-03-07T18:19:10;3.53;;;1.50;;
55037;SDS011;40937;53.594;10.034;2023-03-07T18:24:26;3.72;;;1.40;;
55037;SDS011;40937;53.594;10.034;2023-03-07T18:26:56;7.82;;;1.95;;
55037;SDS011;40937;53.594;10.034;2023-03-07T18:29:25;2.78;;;1.65;;
55037;SDS011;40937;53.594;10.034;2023-03-07T18:31:53;5.55;;;1.70;;
55037;SDS011;40937;53.594;10.034;2023-03-07T18:34:22;4.22;;;1.50;;
55037;SDS011;40937;53.594;10.034;2023-03-07T18:36:49;8.05;;;1.73;;
55037;SDS011;40937;53.594;10.034;2023-03-07T18:44:25;8.50;;;1.80;;
55037;SDS011;40937;53.594;10.034;2023-03-07T18:55:47;6.50;;;1.80;;
55037;SDS011;40937;53.594;10.034;2023-03-07T19:29:55;8.32;;;1.80;;
55037;SDS011;40937;53.594;10.034;2023-03-07T19:41:53;7.38;;;2.00;;
55037;SDS011;40937;53.594;10.034;2023-03-07T21:40:59;5.40;;;1.75;;
55037;SDS011;40937;53.594;10.034;2023-03-07T21:43:27;5.35;;;1.90;;
55037;SDS011;40937;53.594;10.034;2023-03-07T21:45:55;2.72;;;1.48;;
55037;SDS011;40937;53.594;10.034;2023-03-07T21:48:22;6.45;;;2.28;;
55037;SDS011;40937;53.594;10.034;2023-03-07T21:50:50;9.05;;;2.33;;
55037;SDS011;40937;53.594;10.034;2023-03-07T21:53:21;7.43;;;2.03;;
55037;SDS011;40937;53.594;10.034;2023-03-07T21:55:48;8.60;;;1.80;;
55037;SDS011;40937;53.594;10.034;2023-03-07T21:58:16;4.60;;;1.80;;
55037;SDS011;40937;53.594;10.034;2023-03-07T22:00:44;6.60;;;1.90;;
55037;SDS011;40937;53.594;10.034;2023-03-07T22:03:11;4.22;;;2.00;;
55037;SDS011;40937;53.594;10.034;2023-03-07T22:05:38;5.40;;;1.63;;
55037;SDS011;40937;53.594;10.034;2023-03-07T22:08:06;5.93;;;1.70;;
55037;SDS011;40937;53.594;10.034;2023-03-07T22:10:35;7.40;;;1.67;;
55037;SDS011;40937;53.594;10.034;2023-03-07T22:13:02;3.58;;;1.80;;
55037;SDS011;40937;53.594;10.034;2023-03-07T22:15:29;6.35;;;2.08;;
55037;SDS011;40937;53.594;10.034;2023-03-07T22:17:57;6.05;;;1.85;;
55037;SDS011;40937;53.594;10.034;2023-03-07T22:20:24;3.88;;;1.75;;
55037;SDS011;40937;53.594;10.034;2023-03-07T22:22:52;4.78;;;1.65;;
55037;SDS011;40937;53.594;10.034;2023-03-07T22:25:19;4.63;;;1.55;;
55037;SDS011;40937;53.594;10.034;2023-03-07T22:27:48;9.30;;;2.33;;
55037;SDS011;40937;53.594;10.034;2023-03-07T22:30:15;5.57;;;1.80;;
55037;SDS011;40937;53.594;10.034;2023-03-07T22:32:42;4.15;;;1.55;;
55037;SDS011;40937;53.594;10.034;2023-03-07T22:35:10;4.97;;;1.65;;
55037;SDS011;40937;53.594;10.034;2023-03-07T22:37:37;5.00;;;1.63;;
55037;SDS011;40937;53.594;10.034;2023-03-07T22:40:08;4.43;;;2.05;;
55037;SDS011;40937;53.594;10.034;2023-03-07T22:42:36;6.22;;;1.90;;
55037;SDS011;40937;53.594;10.034;2023-03-07T22:45:05;5.72;;;2.10;;
55037;SDS011;40937;53.594;10.034;2023-03-07T22:47:33;5.10;;;1.75;;
55037;SDS011;40937;53.594;10.034;2023-03-07T22:50:01;5.32;;;1.92;;
55037;SDS011;40937;53.594;10.034;2023-03-07T22:52:29;6.22;;;1.83;;
55037;SDS011;40937;53.594;10.034;2023-03-07T22:54:56;3.20;;;1.42;;
55037;SDS011;40937;53.594;10.034;2023-03-07T22:57:23;3.50;;;1.90;;
55037;SDS011;40937;53.594;10.034;2023-03-07T22:59:50;3.40;;;1.42;;
55037;SDS011;40937;53.594;10.034;2023-03-07T23:02:19;8.18;;;1.90;;
55037;SDS011;40937;53.594;10.034;2023-03-07T23:04:49;5.38;;;1.60;;
55037;SDS011;40937;53.594;10.034;2023-03-07T23:07:16;10.02;;;1.85;;
55037;SDS011;40937;53.594;10.034;2023-03-07T23:09:44;2.72;;;1.38;;
55037;SDS011;40937;53.594;10.034;2023-03-07T23:12:11;5.22;;;1.60;;
55037;SDS011;40937;53.594;10.034;2023-03-07T23:14:38;10.18;;;1.77;;
55037;SDS011;40937;53.594;10.034;2023-03-07T23:17:05;3.42;;;1.20;;
55037;SDS011;40937;53.594;10.034;2023-03-07T23:19:34;3.47;;;1.67;;
55037;SDS011;40937;53.594;10.034;2023-03-07T23:22:01;4.90;;;1.65;;
55037;SDS011;40937;53.594;10.034;2023-03-07T23:24:28;2.05;;;1.25;;
55037;SDS011;40937;53.594;10.034;2023-03-07T23:26:55;4.40;;;1.60;;
55037;SDS011;40937;53.594;10.034;2023-03-07T23:29:23;6.35;;;1.70;;
55037;SDS011;40937;53.594;10.034;2023-03-07T23:31:50;3.75;;;1.52;;
55037;SDS011;40937;53.594;10.034;2023-03-07T23:34:18;5.35;;;1.70;;
55037;SDS011;40937;53.594;10.034;2023-03-07T23:36:47;6.80;;;2.00;;
55037;SDS011;40937;53.594;10.034;2023-03-07T23:39:27;5.15;;;1.70;;
55037;SDS011;40937;53.594;10.034;2023-03-07T23:42:46;4.38;;;1.65;;
55037;SDS011;40937;53.594;10.034;2023-03-07T23:46:26;5.25;;;1.92;;
55037;SDS011;40937;53.594;10.034;2023-03-07T23:53:16;6.85;;;1.85;;
55037;SDS011;40937;53.594;10.034;2023-03-07T23:55:43;4.70;;;1.73;;
55037;SDS011;40937;53.594;10.034;2023-03-07T23:58:11;6.93;;;2.05;;
